Time;durP1;ratioP1;P1;durP2;ratioP2;P2;SDS_P1;SDS_P2;PMS_P1;PMS_P2;Temp;Humidity;BMP_temperature;BMP_pressure;BME280_temperature;BME280_humidity;BME280_pressure;Samples;Min_cycle;Max_cycle;Signal;HPM_P1;HPM_P2
2021/03/31 00:00:32;;;;;;;15.95;12.28;;;;;;;6.83;58.50;101330.20;1723545;83;20948;-66
2021/03/31 00:03:05;;;;;;;16.17;12.00;;;;;;;6.81;58.71;101328.08;1723446;83;22073;-65
2021/03/31 00:05:33;;;;;;;18.55;13.48;;;;;;;6.76;59.06;101317.84;1723223;83;21625;-65
2021/03/31 00:08:02;;;;;;;20.92;12.43;;;;;;;6.74;59.08;101308.41;1723392;83;21597;-66
2021/03/31 00:10:38;;;;;;;18.10;13.00;;;;;;;6.71;59.11;101305.88;1723352;83;21572;-65
2021/03/31 00:13:06;;;;;;;19.02;13.58;;;;;;;6.68;59.28;101318.44;1723580;83;20920;-65
2021/03/31 00:15:35;;;;;;;17.25;12.10;;;;;;;6.66;59.71;101312.44;1723439;83;21888;-65
2021/03/31 00:18:09;;;;;;;16.65;13.05;;;;;;;6.64;59.77;101311.61;1720191;83;20951;-65
2021/03/31 00:20:39;;;;;;;19.95;12.90;;;;;;;6.61;59.93;101311.67;1723474;83;20889;-64
2021/03/31 00:23:09;;;;;;;20.55;13.90;;;;;;;6.58;60.16;101309.98;1723477;83;21494;-64
2021/03/31 00:25:38;;;;;;;20.65;12.95;;;;;;;6.55;60.38;101310.05;1723445;83;21466;-65
2021/03/31 00:28:08;;;;;;;16.97;12.13;;;;;;;6.55;60.49;101311.78;1723414;83;21390;-65
2021/03/31 00:30:37;;;;;;;17.95;12.18;;;;;;;6.54;60.60;101305.75;1723369;83;20963;-65
2021/03/31 00:33:06;;;;;;;19.70;13.40;;;;;;;6.53;60.50;101301.45;1716779;83;21573;-65
2021/03/31 00:35:36;;;;;;;18.45;12.90;;;;;;;6.51;60.52;101305.81;1705688;83;21043;-66
2021/03/31 00:38:06;;;;;;;18.15;13.25;;;;;;;6.47;60.44;101302.87;1705705;84;20984;-66
2021/03/31 00:40:42;;;;;;;17.90;13.28;;;;;;;6.44;60.36;101297.75;1705715;83;21269;-66
2021/03/31 00:43:10;;;;;;;20.35;12.82;;;;;;;6.40;60.40;101292.69;1705668;84;21070;-66
2021/03/31 00:45:41;;;;;;;19.77;13.28;;;;;;;6.39;60.57;101290.55;1705763;83;20996;-65
2021/03/31 00:48:16;;;;;;;18.25;12.70;;;;;;;6.38;60.40;101287.98;1705706;84;21054;-65
2021/03/31 00:50:51;;;;;;;17.92;13.50;;;;;;;6.37;60.24;101284.98;1705830;84;21542;-65
2021/03/31 00:53:24;;;;;;;;;;;;;;;6.34;60.67;101279.42;1708249;83;21220;-65
2021/03/31 00:55:53;;;;;;;17.32;13.22;;;;;;;6.30;60.87;101273.89;1705636;84;20177;-65
2021/03/31 00:58:21;;;;;;;24.40;15.45;;;;;;;6.25;61.36;101275.27;1705703;83;21648;-65
2021/03/31 01:00:50;;;;;;;24.77;15.55;;;;;;;6.23;62.29;101282.64;1705666;84;21509;-66
2021/03/31 01:03:18;;;;;;;26.07;16.27;;;;;;;6.19;62.40;101286.16;1711140;83;21521;-66
2021/03/31 01:05:47;;;;;;;21.07;16.20;;;;;;;6.11;62.97;101278.98;1705813;84;21438;-65
2021/03/31 01:08:16;;;;;;;25.95;15.90;;;;;;;6.02;63.36;101286.45;1705676;84;21514;-65
2021/03/31 01:10:47;;;;;;;19.40;15.80;;;;;;;5.96;63.72;101282.27;1705772;84;21545;-66
2021/03/31 01:13:41;;;;;;;22.20;14.85;;;;;;;5.93;64.17;101281.47;1710407;83;20932;-66
2021/03/31 01:16:51;;;;;;;22.75;15.63;;;;;;;5.87;64.46;101275.92;1705796;84;21076;-65
2021/03/31 01:20:04;;;;;;;24.05;17.40;;;;;;;5.80;64.96;101270.44;1705691;84;21038;-66
2021/03/31 01:22:56;;;;;;;25.23;16.55;;;;;;;5.72;65.26;101264.98;1705636;84;21071;-65
2021/03/31 01:25:37;;;;;;;29.70;17.50;;;;;;;5.64;65.56;101262.52;1710127;83;21617;-65
2021/03/31 01:28:42;;;;;;;23.38;16.27;;;;;;;5.59;65.63;101263.05;1691429;84;21529;-65
2021/03/31 01:31:30;;;;;;;30.10;17.67;;;;;;;5.56;65.85;101265.25;1705441;83;21031;-66
2021/03/31 01:34:32;;;;;;;25.72;17.40;;;;;;;5.53;65.91;101264.44;1718876;83;22124;-66
2021/03/31 01:37:10;;;;;;;21.75;16.85;;;;;;;5.49;66.08;101263.63;1728017;83;21438;-66
2021/03/31 01:39:40;;;;;;;25.10;17.30;;;;;;;5.49;66.14;101266.66;1709063;83;21011;-67
2021/03/31 01:42:10;;;;;;;25.05;18.20;;;;;;;5.47;66.03;101265.83;1728005;82;20948;-67
2021/03/31 01:44:39;;;;;;;29.85;17.90;;;;;;;5.48;66.11;101265.80;1728060;82;21560;-67
2021/03/31 01:47:08;;;;;;;27.20;18.42;;;;;;;5.49;66.35;101260.20;1728050;83;21200;-66
2021/03/31 01:49:36;;;;;;;25.37;17.77;;;;;;;5.49;66.43;101258.47;1727988;83;21534;-66
2021/03/31 01:52:07;;;;;;;28.62;17.17;;;;;;;5.51;66.35;101250.25;1728036;83;20916;-66
2021/03/31 01:54:36;;;;;;;23.73;16.37;;;;;;;5.50;65.95;101252.42;1727991;83;20889;-67
2021/03/31 01:57:07;;;;;;;26.45;17.25;;;;;;;5.49;66.24;101247.28;1728063;83;21509;-66
2021/03/31 01:59:36;;;;;;;22.93;17.27;;;;;;;5.46;65.94;101248.62;1728020;82;21225;-67
2021/03/31 02:02:09;;;;;;;24.23;17.45;;;;;;;5.43;66.03;101246.08;1727983;82;21484;-66
2021/03/31 02:04:40;;;;;;;25.95;16.57;;;;;;;5.42;65.97;101239.20;1728033;82;21090;-66
2021/03/31 02:07:10;;;;;;;24.55;16.95;;;;;;;5.42;66.17;101232.31;1728001;83;20924;-65
2021/03/31 02:09:43;;;;;;;24.45;16.23;;;;;;;5.40;66.23;101241.81;1727797;83;21601;-66
2021/03/31 02:12:16;;;;;;;27.73;17.23;;;;;;;5.38;66.18;101237.11;1728107;83;22108;-66
2021/03/31 02:14:46;;;;;;;23.35;17.07;;;;;;;5.36;66.02;101242.30;1727949;83;20999;-66
2021/03/31 02:17:19;;;;;;;24.43;17.45;;;;;;;5.34;66.21;101235.45;1728082;83;20959;-66
2021/03/31 02:19:48;;;;;;;22.15;15.70;;;;;;;5.33;66.19;101241.48;1727655;82;20947;-66
2021/03/31 02:22:20;;;;;;;23.65;16.02;;;;;;;5.33;66.21;101247.50;1728051;83;21485;-67
2021/03/31 02:24:48;;;;;;;21.17;15.48;;;;;;;5.31;66.13;101245.38;1728062;83;21213;-66
2021/03/31 02:27:17;;;;;;;21.93;15.30;;;;;;;5.31;66.13;101244.09;1727993;83;21576;-65
2021/03/31 02:29:47;;;;;;;28.73;16.48;;;;;;;5.29;66.38;101244.55;1728115;83;20931;-65
2021/03/31 02:32:16;;;;;;;21.65;14.93;;;;;;;5.28;66.43;101239.41;1728213;83;20896;-66
2021/03/31 02:34:45;;;;;;;26.35;16.97;;;;;;;5.27;66.82;101238.55;1712639;83;21565;-66
2021/03/31 02:37:16;;;;;;;23.15;16.40;;;;;;;5.24;66.90;101236.02;1708124;84;22252;-66
2021/03/31 02:39:47;;;;;;;22.58;16.75;;;;;;;5.23;66.84;101230.88;1708133;84;21357;-65
2021/03/31 02:42:18;;;;;;;22.40;16.10;;;;;;;5.24;67.28;101233.87;1708089;84;20925;-66
2021/03/31 02:44:49;;;;;;;23.77;17.82;;;;;;;5.24;67.37;101234.73;1708199;84;21463;-65
2021/03/31 02:47:22;;;;;;;26.02;17.45;;;;;;;5.26;67.56;101238.58;1708135;84;21514;-65
2021/03/31 02:49:56;;;;;;;22.25;16.67;;;;;;;5.28;67.66;101235.53;1708082;84;20987;-66
2021/03/31 02:52:24;;;;;;;22.55;16.60;;;;;;;5.26;67.62;101235.56;1708059;84;21589;-66
2021/03/31 02:54:53;;;;;;;24.85;17.05;;;;;;;5.26;67.68;101229.54;1708124;84;21601;-66
2021/03/31 02:57:22;;;;;;;22.67;16.62;;;;;;;5.27;67.89;101224.35;1708075;84;21008;-65
2021/03/31 02:59:51;;;;;;;25.15;17.12;;;;;;;5.26;67.93;101221.36;1708075;84;21043;-65
2021/03/31 03:02:20;;;;;;;23.42;16.65;;;;;;;5.27;68.24;101214.46;1708116;84;21399;-65
2021/03/31 03:04:50;;;;;;;22.50;17.50;;;;;;;5.24;68.38;101214.06;1708098;84;21495;-65
2021/03/31 03:07:19;;;;;;;27.32;18.52;;;;;;;5.21;68.50;101207.66;1708154;84;20925;-66
2021/03/31 03:09:49;;;;;;;27.98;19.45;;;;;;;5.18;68.93;101209.03;1708068;84;20956;-66
2021/03/31 03:12:17;;;;;;;25.00;17.25;;;;;;;5.13;69.14;101205.66;1708110;84;21459;-66
2021/03/31 03:14:49;;;;;;;30.40;18.98;;;;;;;5.12;70.00;101208.27;1708103;84;21215;-66
2021/03/31 03:17:18;;;;;;;25.57;18.12;;;;;;;5.08;70.65;101207.89;1708031;84;21507;-66
2021/03/31 03:19:46;;;;;;;27.10;18.30;;;;;;;5.03;71.31;101201.50;1708060;84;21067;-66
2021/03/31 03:22:15;;;;;;;29.27;18.90;;;;;;;4.98;71.98;101200.71;1708150;84;21012;-66
2021/03/31 03:24:45;;;;;;;25.97;19.45;;;;;;;4.93;72.19;101204.64;1708114;84;21011;-65
2021/03/31 03:27:15;;;;;;;34.55;20.40;;;;;;;4.93;72.53;101205.94;1708134;84;22178;-65
2021/03/31 03:29:50;;;;;;;27.50;19.42;;;;;;;4.94;72.62;101203.77;1708018;84;20988;-66
2021/03/31 03:32:18;;;;;;;26.10;19.23;;;;;;;4.95;72.90;101193.86;1708131;84;20988;-66
2021/03/31 03:34:48;;;;;;;27.07;19.60;;;;;;;4.98;73.07;101187.80;1707984;84;22151;-66
2021/03/31 03:37:18;;;;;;;29.67;18.87;;;;;;;4.99;72.94;101190.80;1708121;84;21301;-66
2021/03/31 03:39:47;;;;;;;26.10;18.87;;;;;;;5.00;73.01;101186.05;1708059;84;21220;-66
2021/03/31 03:42:15;;;;;;;25.37;17.85;;;;;;;5.00;73.09;101185.62;1707972;84;21435;-66
2021/03/31 03:44:43;;;;;;;25.27;18.45;;;;;;;5.04;73.04;101194.17;1708071;84;21494;-65
2021/03/31 03:47:12;;;;;;;22.58;17.45;;;;;;;5.04;72.82;101191.59;1708036;84;21573;-65
2021/03/31 03:49:41;;;;;;;24.45;18.17;;;;;;;5.03;72.70;101183.44;1708114;84;21618;-66
2021/03/31 03:52:10;;;;;;;23.02;16.60;;;;;;;5.01;72.73;101180.88;1708065;84;22332;-66
2021/03/31 03:54:39;;;;;;;23.77;17.48;;;;;;;4.99;72.92;101184.34;1708008;84;21526;-66
2021/03/31 03:57:08;;;;;;;24.55;17.25;;;;;;;5.00;72.88;101180.89;1708087;84;20953;-66
2021/03/31 03:59:38;;;;;;;29.50;18.77;;;;;;;4.98;72.83;101174.46;1707980;84;20958;-65
2021/03/31 04:02:07;;;;;;;28.90;18.23;;;;;;;5.00;72.86;101171.86;1708093;84;21515;-65
2021/03/31 04:04:36;;;;;;;24.98;17.82;;;;;;;5.04;72.68;101177.39;1708070;84;21386;-65
2021/03/31 04:07:05;;;;;;;29.90;19.02;;;;;;;5.06;72.58;101169.63;1707958;84;21867;-65
2021/03/31 04:09:34;;;;;;;24.57;18.27;;;;;;;5.08;72.82;101169.16;1708147;84;21610;-65
2021/03/31 04:12:05;;;;;;;25.25;18.07;;;;;;;5.09;72.79;101163.98;1708086;84;21589;-66
2021/03/31 04:14:34;;;;;;;24.07;18.52;;;;;;;5.10;72.90;101169.56;1708159;84;21418;-66
2021/03/31 04:17:02;;;;;;;23.83;18.17;;;;;;;5.11;73.01;101157.06;1708075;84;22101;-65
2021/03/31 04:19:31;;;;;;;25.52;18.73;;;;;;;5.18;73.03;101167.72;1707978;84;21040;-65
2021/03/31 04:22:00;;;;;;;25.60;18.50;;;;;;;5.23;72.89;101167.17;1708095;84;21594;-66
2021/03/31 04:24:28;;;;;;;22.95;17.00;;;;;;;5.25;72.83;101160.25;1708131;84;21483;-66
2021/03/31 04:26:56;;;;;;;26.23;17.65;;;;;;;5.25;72.64;101158.11;1708172;84;21475;-65
2021/03/31 04:29:25;;;;;;;22.35;16.65;;;;;;;5.23;72.57;101147.80;1708055;84;22179;-65
2021/03/31 04:31:54;;;;;;;24.45;17.85;;;;;;;5.19;72.46;101147.47;1707982;84;21550;-64
2021/03/31 04:34:23;;;;;;;23.20;16.97;;;;;;;5.17;72.57;101154.83;1707919;84;20973;-65
2021/03/31 04:36:52;;;;;;;30.17;19.67;;;;;;;5.17;72.69;101148.38;1708045;84;22142;-65
2021/03/31 04:39:23;;;;;;;25.85;18.70;;;;;;;5.17;72.71;101148.38;1708013;84;21549;-65
2021/03/31 04:41:51;;;;;;;29.27;18.87;;;;;;;5.16;72.91;101141.06;1708059;84;22289;-65
2021/03/31 04:44:19;;;;;;;29.92;20.12;;;;;;;5.14;73.01;101140.23;1708058;84;21566;-65
2021/03/31 04:46:51;;;;;;;30.12;18.87;;;;;;;5.16;73.19;101138.92;1708015;84;21041;-63
2021/03/31 04:49:19;;;;;;;30.72;18.57;;;;;;;5.21;73.51;101140.52;1708001;84;21204;-64
2021/03/31 04:51:49;;;;;;;24.02;17.73;;;;;;;5.27;73.53;101139.58;1708031;84;20945;-64
2021/03/31 04:54:18;;;;;;;26.52;18.82;;;;;;;5.30;73.66;101135.21;1708082;84;21415;-64
2021/03/31 04:56:47;;;;;;;26.42;18.10;;;;;;;5.34;73.79;101136.02;1695636;83;21557;-65
2021/03/31 04:59:15;;;;;;;26.10;18.05;;;;;;;5.36;73.92;101135.11;1693064;84;21629;-63
2021/03/31 05:01:45;;;;;;;25.82;19.00;;;;;;;5.40;74.00;101137.64;1694540;83;21657;-65
2021/03/31 05:04:13;;;;;;;22.30;17.23;;;;;;;5.42;74.13;101139.33;1706330;82;21533;-66
2021/03/31 05:06:44;;;;;;;23.73;16.70;;;;;;;5.43;74.14;101142.76;1711109;82;21636;-65
2021/03/31 05:09:12;;;;;;;23.77;17.90;;;;;;;5.43;74.28;101142.76;1692765;82;21585;-64
2021/03/31 05:11:43;;;;;;;24.82;16.85;;;;;;;5.44;74.24;101139.30;1684903;82;34117;-62
2021/03/31 05:14:11;;;;;;;24.18;17.85;;;;;;;5.43;74.43;101141.03;1697067;82;22235;-64
2021/03/31 05:16:40;;;;;;;22.70;16.75;;;;;;;5.46;74.48;101137.55;1690933;84;21713;-66
2021/03/31 05:19:08;;;;;;;23.25;16.93;;;;;;;5.43;74.61;101133.28;1653375;84;21350;-64
2021/03/31 05:21:38;;;;;;;24.47;18.17;;;;;;;5.44;74.83;101140.15;1640674;85;21639;-63
2021/03/31 05:24:08;;;;;;;21.23;16.30;;;;;;;5.46;75.02;101137.55;1642076;85;20992;-71
2021/03/31 05:26:39;;;;;;;25.62;19.92;;;;;;;5.46;75.09;101143.56;1656756;85;21596;-64
2021/03/31 05:29:08;;;;;;;27.13;20.97;;;;;;;5.46;75.31;101131.08;1670881;85;21018;-63
2021/03/31 05:31:36;;;;;;;28.25;18.95;;;;;;;5.47;75.35;101137.52;1670629;85;21995;-65
2021/03/31 05:34:06;;;;;;;24.95;18.32;;;;;;;5.50;75.56;101131.45;1671390;85;21100;-65
2021/03/31 05:36:34;;;;;;;20.80;16.23;;;;;;;5.52;75.75;101127.95;1667813;84;21611;-63
2021/03/31 05:39:04;;;;;;;28.12;19.30;;;;;;;5.55;75.85;101123.17;1706340;83;21628;-65
2021/03/31 05:41:33;;;;;;;27.10;18.48;;;;;;;5.54;75.89;101127.49;1710291;82;20997;-66
2021/03/31 05:44:03;;;;;;;21.82;18.27;;;;;;;5.56;75.94;101111.97;1715527;82;22071;-66
2021/03/31 05:46:32;;;;;;;25.80;18.67;;;;;;;5.58;76.03;101124.41;1712923;82;21141;-64
2021/03/31 05:49:00;;;;;;;24.40;17.27;;;;;;;5.61;76.33;101116.14;1700436;83;21595;-64
2021/03/31 05:51:29;;;;;;;22.25;16.80;;;;;;;5.67;76.41;101114.73;1712703;82;22297;-63
2021/03/31 05:53:58;;;;;;;27.10;18.60;;;;;;;5.69;76.23;101116.00;1717770;82;20995;-63
2021/03/31 05:56:32;;;;;;;26.45;17.77;;;;;;;5.72;76.44;101115.95;1724231;82;21206;-64
2021/03/31 05:59:04;;;;;;;24.20;18.48;;;;;;;5.76;76.50;101112.86;1717324;82;21073;-66
2021/03/31 06:01:33;;;;;;;28.10;21.45;;;;;;;5.80;76.31;101112.78;1705834;81;21718;-64
2021/03/31 06:04:02;;;;;;;25.05;18.07;;;;;;;5.81;76.01;101112.34;1722640;81;21182;-64
2021/03/31 06:06:31;;;;;;;22.75;18.40;;;;;;;5.82;76.05;101107.14;1696179;83;22546;-63
2021/03/31 06:09:10;;;;;;;26.23;20.40;;;;;;;5.83;76.03;101107.55;1699100;83;22812;-67
2021/03/31 06:11:51;;;;;;;23.75;17.80;;;;;;;5.82;76.04;101108.44;1703317;83;21631;-65
2021/03/31 06:14:40;;;;;;;28.17;17.35;;;;;;;5.83;76.22;101115.31;1708592;83;20952;-62
2021/03/31 06:17:11;;;;;;;26.37;19.65;;;;;;;5.85;76.28;101110.96;1697021;83;20961;-62
2021/03/31 06:19:41;;;;;;;27.45;17.80;;;;;;;5.84;76.12;101109.26;1699654;83;20889;-62
2021/03/31 06:25:13;;;;;;;29.27;19.62;;;;;;;5.88;76.20;101104.88;1710992;83;26986;-71
2021/03/31 06:27:41;;;;;;;21.80;17.00;;;;;;;5.93;76.63;101106.97;1696116;82;21566;-70
2021/03/31 06:30:20;;;;;;;23.83;17.73;;;;;;;5.99;76.74;101108.14;1714876;82;21023;-72
2021/03/31 06:32:52;;;;;;;27.35;17.37;;;;;;;6.01;76.83;101104.62;1711800;82;20966;-74
2021/03/31 06:35:23;;;;;;;27.85;16.70;;;;;;;6.04;77.19;101106.29;1702151;82;21259;-67
2021/03/31 06:38:05;;;;;;;23.75;18.48;;;;;;;6.05;77.20;101107.98;1695773;82;21658;-71
2021/03/31 06:40:44;;;;;;;21.07;17.05;;;;;;;6.08;77.21;101108.37;1690677;82;21185;-64
2021/03/31 06:43:18;;;;;;;25.30;19.67;;;;;;;6.11;77.31;101110.90;1678357;84;21101;-64
2021/03/31 06:46:02;;;;;;;21.70;16.82;;;;;;;6.12;77.45;101110.02;1689640;83;21069;-65
2021/03/31 06:48:29;;;;;;;24.63;16.87;;;;;;;6.15;77.63;101115.98;1698837;83;22208;-68
2021/03/31 06:50:58;;;;;;;23.05;17.67;;;;;;;6.17;77.74;101108.19;1692752;83;21164;-71
2021/03/31 06:53:31;;;;;;;25.12;18.65;;;;;;;6.18;77.87;101113.33;1679446;83;21578;-68
2021/03/31 06:56:02;;;;;;;24.98;17.65;;;;;;;6.19;77.91;101105.13;1705113;82;20990;-68
2021/03/31 06:58:30;;;;;;;27.87;18.95;;;;;;;6.21;78.20;101110.69;1659203;85;21224;-66
2021/03/31 07:00:59;;;;;;;30.40;19.40;;;;;;;6.24;78.55;101109.77;1635652;85;22115;-67
2021/03/31 07:03:28;;;;;;;21.07;17.48;;;;;;;6.28;79.06;101103.65;1696868;82;21015;-67
2021/03/31 07:05:59;;;;;;;26.52;17.87;;;;;;;6.33;79.29;101109.14;1690034;82;21739;-68
2021/03/31 07:08:27;;;;;;;20.80;16.77;;;;;;;6.36;79.46;101104.34;1695654;82;21014;-71
2021/03/31 07:10:58;;;;;;;22.55;17.70;;;;;;;6.37;79.73;101104.75;1671955;84;21008;-68
2021/03/31 07:13:34;;;;;;;24.50;17.85;;;;;;;6.37;80.13;101110.36;1700238;83;22008;-68
2021/03/31 07:16:05;;;;;;;25.30;18.15;;;;;;;6.36;80.42;101097.87;1689050;84;21156;-66
2021/03/31 07:18:34;;;;;;;38.33;29.15;;;;;;;6.31;80.69;101098.41;1652815;85;21039;-71
2021/03/31 07:21:05;;;;;;;44.50;31.37;;;;;;;6.29;81.28;101102.32;1643765;86;21683;-68
2021/03/31 07:23:33;;;;;;;34.53;23.73;;;;;;;6.28;81.75;101097.18;1660869;85;21152;-67
2021/03/31 07:26:02;;;;;;;29.65;22.00;;;;;;;6.32;82.30;101101.41;1626788;85;22350;-67
2021/03/31 07:28:32;;;;;;;25.52;20.48;;;;;;;6.37;82.54;101103.90;1651222;84;21048;-67
2021/03/31 07:31:04;;;;;;;27.87;20.02;;;;;;;6.42;82.86;101099.00;1695384;82;21038;-66
2021/03/31 07:33:34;;;;;;;25.65;19.15;;;;;;;6.50;83.17;101100.13;1686876;84;21052;-66
2021/03/31 07:36:05;;;;;;;21.68;17.92;;;;;;;6.52;83.26;101095.34;1713057;83;21492;-67
2021/03/31 07:38:34;;;;;;;26.60;19.00;;;;;;;6.55;83.58;101094.41;1683016;83;21206;-66
2021/03/31 07:41:04;;;;;;;22.02;17.05;;;;;;;6.59;83.69;101097.34;1649391;86;21174;-66
2021/03/31 07:43:38;;;;;;;25.27;18.35;;;;;;;6.62;83.70;101095.98;1672142;85;21017;-67
2021/03/31 07:46:12;;;;;;;25.20;18.65;;;;;;;6.61;83.79;101095.13;1658103;84;21675;-67
2021/03/31 07:48:41;;;;;;;31.25;23.32;;;;;;;6.63;83.95;101093.80;1688766;84;21057;-67
2021/03/31 07:51:21;;;;;;;27.22;20.72;;;;;;;6.63;84.12;101095.09;1692851;83;21820;-69
2021/03/31 07:53:51;;;;;;;23.15;20.12;;;;;;;6.63;84.38;101090.77;1683438;84;20997;-67
2021/03/31 07:56:28;;;;;;;31.17;20.90;;;;;;;6.64;84.72;101084.71;1664769;84;21060;-65
2021/03/31 07:59:11;;;;;;;25.77;19.20;;;;;;;6.68;84.85;101085.49;1680443;84;21681;-66
2021/03/31 08:01:51;;;;;;;26.57;20.43;;;;;;;6.72;84.86;101087.13;1726638;83;21023;-63
2021/03/31 08:04:24;;;;;;;26.00;19.90;;;;;;;6.76;85.04;101082.73;1711001;81;22157;-67
2021/03/31 08:07:00;;;;;;;23.85;18.62;;;;;;;6.81;85.36;101086.03;1738914;81;21024;-65
2021/03/31 08:09:33;;;;;;;26.75;20.57;;;;;;;6.85;85.42;101082.48;1681171;85;20966;-66
2021/03/31 08:12:04;;;;;;;22.07;18.52;;;;;;;6.85;85.67;101072.98;1668032;84;21657;-66
2021/03/31 08:14:36;;;;;;;27.82;21.37;;;;;;;6.86;85.95;101077.27;1655655;86;21069;-68
2021/03/31 08:17:12;;;;;;;30.80;23.32;;;;;;;6.90;86.09;101079.34;1662793;86;22127;-67
2021/03/31 08:19:46;;;;;;;23.60;19.48;;;;;;;6.97;86.14;101073.98;1658517;85;21065;-66
2021/03/31 08:22:29;;;;;;;25.27;19.42;;;;;;;7.00;86.01;101073.06;1692113;84;21147;-68
2021/03/31 08:25:01;;;;;;;24.07;18.67;;;;;;;7.02;86.07;101071.28;1674379;85;21617;-67
2021/03/31 08:27:31;;;;;;;24.10;17.35;;;;;;;7.02;86.02;101072.13;1664629;84;21246;-68
2021/03/31 08:30:01;;;;;;;21.68;16.67;;;;;;;7.03;86.23;101065.22;1631379;85;21351;-68
2021/03/31 08:32:30;;;;;;;26.12;18.45;;;;;;;7.03;86.46;101069.10;1678256;83;21031;-65
2021/03/31 08:35:00;;;;;;;21.20;17.40;;;;;;;7.01;86.57;101068.29;1676004;83;21104;-66
2021/03/31 08:37:31;;;;;;;26.55;19.45;;;;;;;7.02;86.81;101063.52;1710099;81;21158;-67
2021/03/31 08:40:03;;;;;;;22.50;19.42;;;;;;;7.05;86.99;101066.03;1669134;82;21057;-67
2021/03/31 08:42:31;;;;;;;23.00;19.17;;;;;;;7.09;87.22;101053.86;1663356;85;21322;-68
2021/03/31 08:45:05;;;;;;;21.42;18.12;;;;;;;7.13;87.46;101057.63;1709802;81;21027;-72
2021/03/31 08:47:39;;;;;;;22.90;19.15;;;;;;;7.18;87.49;101060.95;1726205;81;21092;-69
2021/03/31 08:50:11;;;;;;;23.32;18.77;;;;;;;7.23;87.55;101055.62;1691806;83;21015;-70
2021/03/31 08:52:41;;;;;;;24.98;20.43;;;;;;;7.26;87.46;101043.89;1711261;81;20983;-69
2021/03/31 08:55:12;;;;;;;27.55;22.13;;;;;;;7.27;87.49;101042.55;1715231;81;21576;-72
2021/03/31 08:57:42;;;;;;;28.32;22.65;;;;;;;7.28;87.71;101053.77;1712624;81;21099;-68
2021/03/31 09:00:10;;;;;;;33.23;26.30;;;;;;;7.32;87.80;101049.77;1711370;83;21108;-69
2021/03/31 09:02:44;;;;;;;36.98;26.87;;;;;;;7.36;87.90;101052.68;1691635;83;21035;-67
2021/03/31 09:05:10;;;;;;;24.60;19.98;;;;;;;7.41;88.05;101053.00;1680826;83;21588;-65
2021/03/31 09:07:41;;;;;;;33.73;29.92;;;;;;;7.44;88.04;101047.74;1669427;84;21160;-66
2021/03/31 09:10:12;;;;;;;25.95;20.35;;;;;;;7.46;88.09;101055.03;1709060;81;20952;-68
2021/03/31 09:12:43;;;;;;;24.87;19.52;;;;;;;7.50;88.39;101051.02;1701383;83;21033;-67
2021/03/31 09:15:13;;;;;;;26.17;18.20;;;;;;;7.53;88.37;101052.23;1711035;83;21573;-68
2021/03/31 09:17:43;;;;;;;25.48;20.85;;;;;;;7.55;88.38;101054.34;1709013;81;21637;-68
2021/03/31 09:20:12;;;;;;;21.87;18.05;;;;;;;7.56;88.59;101046.13;1711434;81;21698;-67
2021/03/31 09:22:41;;;;;;;29.37;23.20;;;;;;;7.60;88.76;101047.70;1716309;81;21023;-66
2021/03/31 09:25:13;;;;;;;34.58;26.73;;;;;;;7.63;88.70;101051.06;1726444;81;21635;-68
2021/03/31 09:27:43;;;;;;;30.92;26.12;;;;;;;7.65;88.70;101048.44;1723001;83;21066;-68
2021/03/31 09:30:15;;;;;;;29.12;20.65;;;;;;;7.68;88.73;101050.94;1722643;81;20991;-66
2021/03/31 09:32:56;;;;;;;31.60;20.10;;;;;;;7.71;88.77;101044.38;1698525;83;21207;-65
2021/03/31 09:35:24;;;;;;;23.87;19.87;;;;;;;7.75;88.74;101041.25;1731099;81;21555;-65
2021/03/31 09:37:56;;;;;;;25.25;20.82;;;;;;;7.78;88.48;101039.42;1735914;81;20961;-66
2021/03/31 09:40:37;;;;;;;24.55;19.17;;;;;;;7.80;88.43;101038.09;1713210;82;21404;-68
2021/03/31 09:43:07;;;;;;;27.20;21.02;;;;;;;7.83;88.72;101037.55;1730489;80;20997;-70
2021/03/31 09:45:38;;;;;;;25.52;21.10;;;;;;;7.85;88.51;101037.06;1739101;81;22174;-69
2021/03/31 09:48:11;;;;;;;29.20;23.10;;;;;;;7.88;88.54;101033.09;1724038;83;20999;-68
2021/03/31 09:50:40;;;;;;;26.07;21.65;;;;;;;7.93;88.55;101032.95;1690048;84;21039;-67
2021/03/31 09:53:09;;;;;;;23.60;20.40;;;;;;;7.96;88.37;101039.35;1667440;84;21108;-66
2021/03/31 09:55:39;;;;;;;27.10;21.48;;;;;;;8.02;88.43;101032.66;1666567;85;21145;-65
2021/03/31 09:58:08;;;;;;;27.95;20.92;;;;;;;8.05;87.98;101019.60;1677597;84;22859;-68
2021/03/31 10:00:40;;;;;;;29.95;22.30;;;;;;;8.08;88.12;101023.84;1652889;84;21078;-67
2021/03/31 10:03:10;;;;;;;30.35;22.07;;;;;;;8.13;88.23;101017.63;1659940;84;21025;-66
2021/03/31 10:05:41;;;;;;;29.60;22.45;;;;;;;8.20;88.18;101019.59;1669771;83;21050;-70
2021/03/31 10:08:20;;;;;;;26.55;21.23;;;;;;;8.29;87.92;101019.32;1709434;82;21086;-70
2021/03/31 10:10:57;;;;;;;27.52;22.40;;;;;;;8.34;87.59;101011.83;1706051;83;21660;-70
2021/03/31 10:13:27;;;;;;;28.02;22.52;;;;;;;8.42;87.21;101008.97;1696630;82;21086;-69
2021/03/31 10:16:06;;;;;;;26.15;23.22;;;;;;;8.49;86.89;101010.47;1656649;84;21020;-69
2021/03/31 10:18:35;;;;;;;28.17;23.47;;;;;;;8.56;86.58;101002.89;1693994;84;21102;-70
2021/03/31 10:21:06;;;;;;;29.87;22.93;;;;;;;8.65;86.49;101009.09;1690428;84;21053;-69
2021/03/31 10:23:38;;;;;;;30.30;22.22;;;;;;;8.75;86.36;101001.00;1680273;83;21211;-68
2021/03/31 10:26:36;;;;;;;31.55;23.22;;;;;;;8.85;85.95;101004.52;1702820;82;21063;-71
2021/03/31 10:29:24;;;;;;;29.92;24.18;;;;;;;8.93;85.39;101001.67;1686498;84;21011;-72
2021/03/31 10:31:59;;;;;;;31.97;24.32;;;;;;;9.01;85.09;101006.16;1685046;84;21156;-68
2021/03/31 10:34:43;;;;;;;32.70;25.43;;;;;;;9.07;84.78;100998.16;1696209;82;20991;-70
2021/03/31 10:37:20;;;;;;;26.97;22.32;;;;;;;9.11;84.52;100999.75;1669487;84;21485;-72
2021/03/31 10:54:04;;;;;;;30.08;23.12;;;;;;;9.23;83.25;100983.71;1669989;84;21173;-70
2021/03/31 10:56:51;;;;;;;34.13;23.90;;;;;;;9.30;82.93;100982.59;1643903;85;20987;-70
2021/03/31 10:59:19;;;;;;;26.55;21.15;;;;;;;9.35;82.73;100980.69;1643920;85;21165;-69
2021/03/31 11:01:48;;;;;;;26.10;21.87;;;;;;;9.40;82.54;100977.92;1643056;86;21140;-70
2021/03/31 11:04:18;;;;;;;28.10;21.73;;;;;;;9.46;82.26;100975.10;1643248;87;21221;-71
2021/03/31 11:06:52;;;;;;;30.40;24.32;;;;;;;9.50;82.07;100968.04;1649519;85;20938;-72
2021/03/31 11:09:31;;;;;;;29.75;23.35;;;;;;;9.57;82.05;100972.12;1648008;84;22171;-72
2021/03/31 11:12:00;;;;;;;26.90;21.97;;;;;;;9.64;81.72;100968.36;1678334;85;21171;-67
2021/03/31 11:14:30;;;;;;;26.15;21.37;;;;;;;9.68;81.44;100959.54;1692010;82;20999;-69
2021/03/31 11:17:03;;;;;;;30.68;24.05;;;;;;;9.76;81.22;100963.16;1703452;82;21791;-70
2021/03/31 11:27:53;;;;;;;36.55;26.85;;;;;;;10.16;79.91;100942.94;1705324;82;20994;-70
2021/03/31 11:30:22;;;;;;;32.80;23.35;;;;;;;10.31;79.51;100937.16;1695179;82;21817;-68
2021/03/31 11:33:00;;;;;;;34.50;24.30;;;;;;;10.42;78.88;100932.33;1711424;82;21569;-69
2021/03/31 11:35:34;;;;;;;41.05;27.45;;;;;;;10.49;78.21;100936.38;1697045;82;21082;-68
2021/03/31 11:38:04;;;;;;;33.20;25.32;;;;;;;10.54;77.84;100930.98;1728771;82;21036;-70
2021/03/31 11:40:34;;;;;;;30.37;24.43;;;;;;;10.57;77.86;100926.50;1720077;82;22187;-67
2021/03/31 11:43:03;;;;;;;31.07;24.60;;;;;;;10.67;77.79;100929.12;1666460;84;21297;-66
2021/03/31 11:45:31;;;;;;;30.02;24.27;;;;;;;10.76;77.20;100922.67;1681678;83;22135;-69
2021/03/31 11:48:00;;;;;;;31.17;24.63;;;;;;;10.84;77.05;100921.02;1701688;82;21196;-67
2021/03/31 11:50:29;;;;;;;33.90;24.20;;;;;;;10.95;76.81;100926.16;1653326;85;21031;-70
2021/03/31 11:52:59;;;;;;;31.52;23.87;;;;;;;11.07;76.60;100922.19;1655160;84;21154;-68
2021/03/31 11:55:28;;;;;;;30.88;24.82;;;;;;;11.19;76.13;100927.32;1669785;85;21642;-65
2021/03/31 11:57:56;;;;;;;29.20;23.27;;;;;;;11.31;75.86;100913.25;1730244;80;21017;-66
2021/03/31 12:00:25;;;;;;;25.57;22.77;;;;;;;11.45;75.69;100916.55;1718427;83;21065;-67
2021/03/31 12:02:54;;;;;;;31.82;24.82;;;;;;;11.56;74.96;100909.55;1717396;82;21456;-69